Time;durP1;ratioP1;P1;durP2;ratioP2;P2;SDS_P1;SDS_P2;PMS_P1;PMS_P2;Temp;Humidity;BMP_temperature;BMP_pressure;BME280_temperature;BME280_humidity;BME280_pressure;Samples;Min_cycle;Max_cycle;Signal;HPM_P1;HPM_P2
2022/07/06 00:01:19;;;;;;;1.70;0.82;;;;;;;;;;5074775;28;20201;-81
2022/07/06 00:03:47;;;;;;;0.70;0.70;;;;;;;;;;5075061;28;20268;-79
2022/07/06 00:06:16;;;;;;;1.20;1.10;;;;;;;;;;5080722;28;20255;-78
2022/07/06 00:08:44;;;;;;;0.88;0.70;;;;;;;;;;5081412;28;20207;-79
2022/07/06 00:11:12;;;;;;;0.90;0.85;;;;;;;;;;5078366;28;20747;-78
2022/07/06 00:13:42;;;;;;;1.38;1.27;;;;;;;;;;5080850;28;20717;-78
2022/07/06 00:16:10;;;;;;;1.88;0.90;;;;;;;;;;5078578;28;20319;-78
2022/07/06 00:18:38;;;;;;;1.00;1.00;;;;;;;;;;5079266;28;20232;-79
2022/07/06 00:21:05;;;;;;;0.90;0.90;;;;;;;;;;5079425;28;20243;-79
2022/07/06 00:23:33;;;;;;;0.80;0.80;;;;;;;;;;5078313;28;20201;-78
2022/07/06 00:26:00;;;;;;;1.00;1.00;;;;;;;;;;5079194;28;20228;-78
2022/07/06 00:28:28;;;;;;;2.25;1.10;;;;;;;;;;5075559;28;20296;-81
2022/07/06 00:30:57;;;;;;;1.35;1.23;;;;;;;;;;5078632;28;20251;-81
2022/07/06 00:33:24;;;;;;;1.08;0.95;;;;;;;;;;5078468;28;20229;-79
2022/07/06 00:35:52;;;;;;;1.02;1.00;;;;;;;;;;5077791;28;20293;-79
2022/07/06 00:38:19;;;;;;;1.10;1.00;;;;;;;;;;5077257;28;20272;-80
2022/07/06 00:40:47;;;;;;;2.17;1.02;;;;;;;;;;5076780;28;20691;-80
2022/07/06 00:43:15;;;;;;;2.03;1.58;;;;;;;;;;5077239;28;20287;-79
2022/07/06 00:45:43;;;;;;;0.73;0.73;;;;;;;;;;5077839;28;20255;-79
2022/07/06 00:48:12;;;;;;;1.23;1.13;;;;;;;;;;5078128;28;20243;-80
2022/07/06 00:50:39;;;;;;;1.27;0.90;;;;;;;;;;5078209;28;20224;-79
2022/07/06 00:53:08;;;;;;;0.75;0.73;;;;;;;;;;5077501;28;20236;-79
2022/07/06 00:55:39;;;;;;;0.77;0.77;;;;;;;;;;5074682;28;20225;-80
2022/07/06 00:58:07;;;;;;;1.08;0.98;;;;;;;;;;5079071;28;20270;-78
2022/07/06 01:00:35;;;;;;;1.20;1.20;;;;;;;;;;5079172;28;20196;-78
2022/07/06 01:03:03;;;;;;;0.98;0.90;;;;;;;;;;5079222;28;20247;-78
2022/07/06 01:05:32;;;;;;;1.10;1.00;;;;;;;;;;5079517;28;20244;-78
2022/07/06 01:08:00;;;;;;;1.15;0.88;;;;;;;;;;5079127;28;20685;-78
2022/07/06 01:10:28;;;;;;;0.80;0.80;;;;;;;;;;5078923;28;20213;-77
2022/07/06 01:12:56;;;;;;;0.93;0.93;;;;;;;;;;5079020;28;20232;-78
2022/07/06 01:15:25;;;;;;;0.77;0.77;;;;;;;;;;5079842;28;20224;-78
2022/07/06 01:17:53;;;;;;;1.33;1.00;;;;;;;;;;5079034;28;20201;-77
2022/07/06 01:20:25;;;;;;;0.80;0.80;;;;;;;;;;5079963;28;20225;-78
2022/07/06 01:22:54;;;;;;;2.28;1.10;;;;;;;;;;5078479;28;20185;-78
2022/07/06 01:25:22;;;;;;;0.90;0.90;;;;;;;;;;5079421;28;20225;-78
2022/07/06 01:27:50;;;;;;;0.98;0.98;;;;;;;;;;5079245;28;20239;-77
2022/07/06 01:30:19;;;;;;;1.15;0.88;;;;;;;;;;5077888;28;20262;-78
2022/07/06 01:32:48;;;;;;;2.03;1.20;;;;;;;;;;5078186;28;20288;-78
2022/07/06 01:35:16;;;;;;;1.17;1.10;;;;;;;;;;5078153;28;20249;-78
2022/07/06 01:37:45;;;;;;;1.05;0.95;;;;;;;;;;5079470;28;20763;-77
2022/07/06 01:40:14;;;;;;;1.33;1.20;;;;;;;;;;5078519;28;20240;-78
2022/07/06 01:42:41;;;;;;;1.60;1.10;;;;;;;;;;5082995;28;20679;-78
2022/07/06 01:45:11;;;;;;;2.75;1.42;;;;;;;;;;5097641;28;20248;-78
2022/07/06 01:47:38;;;;;;;3.42;1.67;;;;;;;;;;5097966;28;20700;-78
2022/07/06 01:50:09;;;;;;;1.35;1.17;;;;;;;;;;5097926;28;20196;-78
2022/07/06 01:52:36;;;;;;;1.30;1.20;;;;;;;;;;5096605;28;20775;-78
2022/07/06 01:55:06;;;;;;;2.92;1.25;;;;;;;;;;5097737;28;20304;-78
2022/07/06 01:57:34;;;;;;;1.52;1.30;;;;;;;;;;5097774;28;20239;-78
2022/07/06 02:00:01;;;;;;;2.60;1.73;;;;;;;;;;5098135;28;20283;-79
2022/07/06 02:02:29;;;;;;;1.15;1.02;;;;;;;;;;5097527;28;20197;-78
2022/07/06 02:04:56;;;;;;;2.22;1.27;;;;;;;;;;5096142;28;20247;-80
2022/07/06 02:07:24;;;;;;;1.50;1.27;;;;;;;;;;5098809;28;20288;-79
2022/07/06 02:09:51;;;;;;;1.30;1.10;;;;;;;;;;5095529;28;20206;-80
2022/07/06 02:12:20;;;;;;;1.00;1.00;;;;;;;;;;5089498;28;20656;-80
2022/07/06 02:14:48;;;;;;;1.17;1.10;;;;;;;;;;5087378;23;20256;-84
2022/07/06 02:17:16;;;;;;;1.42;1.30;;;;;;;;;;5095570;28;20216;-84
2022/07/06 02:19:43;;;;;;;1.77;1.20;;;;;;;;;;5096012;28;20268;-84
2022/07/06 02:22:10;;;;;;;1.63;1.20;;;;;;;;;;5096220;28;20640;-82
2022/07/06 02:24:38;;;;;;;1.13;1.05;;;;;;;;;;5096086;28;20347;-83
2022/07/06 02:27:06;;;;;;;1.00;1.00;;;;;;;;;;5095881;28;20303;-83
2022/07/06 02:29:35;;;;;;;1.20;1.20;;;;;;;;;;5095471;28;20228;-82
2022/07/06 02:32:02;;;;;;;1.30;1.20;;;;;;;;;;5095558;28;20307;-84
2022/07/06 02:34:30;;;;;;;1.13;1.02;;;;;;;;;;5095525;28;20235;-84
2022/07/06 02:36:57;;;;;;;1.10;1.10;;;;;;;;;;5095549;28;20259;-82
2022/07/06 02:39:25;;;;;;;1.83;1.42;;;;;;;;;;5095497;28;20228;-83
2022/07/06 02:41:52;;;;;;;2.38;1.00;;;;;;;;;;5095900;28;20234;-84
2022/07/06 02:44:20;;;;;;;1.30;1.20;;;;;;;;;;5094657;28;20203;-82
2022/07/06 02:46:48;;;;;;;1.35;1.00;;;;;;;;;;5095289;28;20252;-82
2022/07/06 02:49:16;;;;;;;1.40;1.30;;;;;;;;;;5095628;28;20209;-83
2022/07/06 02:51:43;;;;;;;1.70;1.10;;;;;;;;;;5095310;28;20270;-83
2022/07/06 02:54:11;;;;;;;1.40;1.30;;;;;;;;;;5095053;28;20206;-83
2022/07/06 02:56:38;;;;;;;1.05;0.98;;;;;;;;;;5095790;28;20311;-82
2022/07/06 02:59:06;;;;;;;2.20;1.10;;;;;;;;;;5095650;28;20226;-83
2022/07/06 03:01:33;;;;;;;1.13;1.10;;;;;;;;;;5094595;28;20283;-82
2022/07/06 03:04:02;;;;;;;1.27;1.17;;;;;;;;;;5095075;28;20242;-84
2022/07/06 03:06:30;;;;;;;1.38;1.10;;;;;;;;;;5094986;28;20259;-80
2022/07/06 03:08:57;;;;;;;1.00;0.90;;;;;;;;;;5095169;28;20239;-84
2022/07/06 03:11:25;;;;;;;1.20;1.10;;;;;;;;;;5095103;28;20292;-84
2022/07/06 03:13:52;;;;;;;2.08;1.00;;;;;;;;;;5095337;28;20311;-82
2022/07/06 03:16:20;;;;;;;1.60;1.08;;;;;;;;;;5097376;28;20704;-84
2022/07/06 03:18:47;;;;;;;1.13;1.00;;;;;;;;;;5099045;28;20196;-84
2022/07/06 03:21:16;;;;;;;1.05;1.00;;;;;;;;;;5098718;28;20227;-83
2022/07/06 03:23:43;;;;;;;1.45;1.00;;;;;;;;;;5098881;28;20292;-84
2022/07/06 03:26:11;;;;;;;1.05;0.95;;;;;;;;;;5098260;28;20256;-84
2022/07/06 03:28:39;;;;;;;2.53;1.20;;;;;;;;;;5098472;28;20236;-83
2022/07/06 03:31:06;;;;;;;1.27;1.17;;;;;;;;;;5098554;28;20200;-82
2022/07/06 03:33:34;;;;;;;0.88;0.82;;;;;;;;;;5098465;28;20868;-83
2022/07/06 03:36:01;;;;;;;1.77;1.45;;;;;;;;;;5098206;28;20256;-83
2022/07/06 03:38:30;;;;;;;9.23;2.78;;;;;;;;;;5098984;28;20239;-83
2022/07/06 03:40:58;;;;;;;1.42;1.27;;;;;;;;;;5099107;28;20228;-83
2022/07/06 03:43:25;;;;;;;1.73;1.38;;;;;;;;;;5099360;28;20228;-83
2022/07/06 03:45:53;;;;;;;1.92;1.20;;;;;;;;;;5098532;28;20266;-83
2022/07/06 03:48:20;;;;;;;0.80;0.80;;;;;;;;;;5098695;28;20684;-83
2022/07/06 03:50:48;;;;;;;4.25;1.75;;;;;;;;;;5099135;28;20232;-84
2022/07/06 03:53:15;;;;;;;0.82;0.82;;;;;;;;;;5098128;28;20311;-83
2022/07/06 03:56:27;;;;;;;1.00;1.00;;;;;;;;;;5098729;28;20212;-83
2022/07/06 03:58:32;;;;;;;1.00;1.00;;;;;;;;;;5099203;28;20287;-84
2022/07/06 04:01:00;;;;;;;2.00;1.10;;;;;;;;;;5098921;28;20656;-83
2022/07/06 04:03:27;;;;;;;2.33;1.60;;;;;;;;;;5098778;28;20224;-82
2022/07/06 04:05:55;;;;;;;0.88;0.88;;;;;;;;;;5098034;28;20311;-83
2022/07/06 04:08:22;;;;;;;1.00;1.00;;;;;;;;;;5098466;28;20234;-83
2022/07/06 04:10:51;;;;;;;1.40;1.00;;;;;;;;;;5097910;28;20201;-84
2022/07/06 04:13:19;;;;;;;1.52;1.25;;;;;;;;;;5098466;28;20362;-83
2022/07/06 04:15:46;;;;;;;1.58;1.10;;;;;;;;;;5098281;28;20264;-84
2022/07/06 04:18:14;;;;;;;1.30;1.00;;;;;;;;;;5098467;28;20637;-82
2022/07/06 04:20:41;;;;;;;1.65;1.13;;;;;;;;;;5097609;28;20283;-82
2022/07/06 04:23:09;;;;;;;1.70;1.00;;;;;;;;;;5097679;28;20227;-83
2022/07/06 04:25:36;;;;;;;3.17;1.25;;;;;;;;;;5097857;28;20256;-83
2022/07/06 04:28:06;;;;;;;1.73;1.42;;;;;;;;;;5097906;28;20243;-84
2022/07/06 04:30:33;;;;;;;1.20;1.10;;;;;;;;;;5098060;28;20247;-80
2022/07/06 04:33:01;;;;;;;1.48;1.20;;;;;;;;;;5097732;28;20251;-84
2022/07/06 04:35:28;;;;;;;2.17;1.15;;;;;;;;;;5097826;28;20244;-84
2022/07/06 04:37:56;;;;;;;1.67;1.58;;;;;;;;;;5098362;28;20279;-85
2022/07/06 04:40:24;;;;;;;1.52;1.17;;;;;;;;;;5098132;28;20640;-83
2022/07/06 04:42:51;;;;;;;1.27;1.17;;;;;;;;;;5097361;28;20232;-84
2022/07/06 04:45:20;;;;;;;1.20;1.20;;;;;;;;;;5097315;28;20248;-84
2022/07/06 04:47:47;;;;;;;1.38;1.10;;;;;;;;;;5097678;28;20235;-81
2022/07/06 04:50:15;;;;;;;2.28;1.52;;;;;;;;;;5098549;28;20235;-83
2022/07/06 04:52:43;;;;;;;1.73;1.30;;;;;;;;;;5097324;28;20687;-80
2022/07/06 04:55:10;;;;;;;1.50;1.15;;;;;;;;;;5097610;28;20252;-84
2022/07/06 04:57:38;;;;;;;3.00;1.50;;;;;;;;;;5098667;28;20204;-83
2022/07/06 05:00:07;;;;;;;1.30;1.20;;;;;;;;;;5098316;28;20207;-83
2022/07/06 05:02:36;;;;;;;1.70;1.20;;;;;;;;;;5098038;28;20731;-85
2022/07/06 05:05:04;;;;;;;1.30;1.20;;;;;;;;;;5098883;28;20252;-84
2022/07/06 05:07:33;;;;;;;1.25;1.25;;;;;;;;;;5098359;28;20224;-81
2022/07/06 05:10:01;;;;;;;1.30;1.10;;;;;;;;;;5098517;28;20204;-82
2022/07/06 05:12:29;;;;;;;1.85;1.30;;;;;;;;;;5097718;28;20228;-83
2022/07/06 05:14:57;;;;;;;1.63;1.52;;;;;;;;;;5096662;28;20263;-81
2022/07/06 05:17:25;;;;;;;1.42;1.30;;;;;;;;;;5097025;28;20701;-81
2022/07/06 05:19:54;;;;;;;2.20;1.33;;;;;;;;;;5096020;28;20200;-80
2022/07/06 05:22:21;;;;;;;1.20;1.10;;;;;;;;;;5096696;28;20203;-80
2022/07/06 05:24:49;;;;;;;1.52;1.42;;;;;;;;;;5096768;28;20204;-80
2022/07/06 05:27:16;;;;;;;0.95;0.95;;;;;;;;;;5096135;28;20200;-80
2022/07/06 05:29:44;;;;;;;2.80;1.20;;;;;;;;;;5096936;28;20460;-79
2022/07/06 05:32:11;;;;;;;2.10;1.08;;;;;;;;;;5095205;28;20240;-80
2022/07/06 05:34:39;;;;;;;1.05;1.05;;;;;;;;;;5096388;28;20307;-80
2022/07/06 05:37:08;;;;;;;0.93;0.80;;;;;;;;;;5096842;28;20230;-82
2022/07/06 05:39:36;;;;;;;1.30;1.20;;;;;;;;;;5095962;28;20292;-81
2022/07/06 05:42:05;;;;;;;2.10;2.00;;;;;;;;;;5096185;28;20239;-80
2022/07/06 05:44:33;;;;;;;3.20;2.65;;;;;;;;;;5097050;28;20196;-80
2022/07/06 05:52:28;;;;;;;1.77;1.65;;;;;;;;;;5095752;28;20627;-83
2022/07/06 05:54:56;;;;;;;1.10;1.02;;;;;;;;;;5096165;28;20247;-80
2022/07/06 05:57:23;;;;;;;3.55;1.98;;;;;;;;;;5096603;28;20660;-82
2022/07/06 05:59:51;;;;;;;5.65;1.90;;;;;;;;;;5095873;28;20684;-81
2022/07/06 06:02:19;;;;;;;2.25;1.30;;;;;;;;;;5096169;28;20257;-82
2022/07/06 06:04:46;;;;;;;1.40;1.30;;;;;;;;;;5094877;28;20231;-82
2022/07/06 06:07:14;;;;;;;1.95;1.83;;;;;;;;;;5095242;28;20235;-82
2022/07/06 06:09:43;;;;;;;7.22;2.75;;;;;;;;;;5095106;28;20671;-80
2022/07/06 06:12:11;;;;;;;1.50;1.40;;;;;;;;;;5095831;28;20200;-82
2022/07/06 06:14:38;;;;;;;2.13;1.95;;;;;;;;;;5095049;28;20255;-82
2022/07/06 06:17:08;;;;;;;1.48;1.23;;;;;;;;;;5095266;28;20295;-82
2022/07/06 06:19:36;;;;;;;1.95;1.58;;;;;;;;;;5095435;28;20354;-82
2022/07/06 06:22:05;;;;;;;1.90;1.20;;;;;;;;;;5096442;28;20200;-82
2022/07/06 06:24:32;;;;;;;2.80;1.23;;;;;;;;;;5096207;28;20287;-82
2022/07/06 06:27:01;;;;;;;1.88;1.20;;;;;;;;;;5095730;28;20677;-80
2022/07/06 06:29:29;;;;;;;1.00;1.00;;;;;;;;;;5095466;28;20669;-82
2022/07/06 06:31:56;;;;;;;1.35;0.95;;;;;;;;;;5095358;28;20240;-81
2022/07/06 06:34:24;;;;;;;2.58;1.10;;;;;;;;;;5096011;28;20255;-81
2022/07/06 06:36:51;;;;;;;1.20;1.10;;;;;;;;;;5095278;28;20688;-80
2022/07/06 06:39:19;;;;;;;1.55;1.17;;;;;;;;;;5095741;28;20201;-81
2022/07/06 06:41:46;;;;;;;1.48;1.10;;;;;;;;;;5095444;28;20232;-78
2022/07/06 06:44:15;;;;;;;1.13;1.00;;;;;;;;;;5095190;28;20628;-81
2022/07/06 06:46:43;;;;;;;1.00;1.00;;;;;;;;;;5096875;28;20716;-79
2022/07/06 06:49:10;;;;;;;1.00;1.00;;;;;;;;;;5096160;28;20236;-79
2022/07/06 06:51:39;;;;;;;1.23;0.93;;;;;;;;;;5098961;28;20666;-80
2022/07/06 06:54:07;;;;;;;1.13;1.02;;;;;;;;;;5099963;28;20201;-78
2022/07/06 06:56:34;;;;;;;0.80;0.80;;;;;;;;;;5100171;28;20222;-78
2022/07/06 06:59:02;;;;;;;2.42;1.10;;;;;;;;;;5099913;28;20227;-78
2022/07/06 07:01:32;;;;;;;1.45;1.02;;;;;;;;;;5099915;28;20657;-79
2022/07/06 07:04:00;;;;;;;1.42;1.30;;;;;;;;;;5099622;28;20196;-78
2022/07/06 07:06:27;;;;;;;1.10;0.90;;;;;;;;;;5099136;28;20247;-80
2022/07/06 07:08:55;;;;;;;1.23;1.00;;;;;;;;;;5098785;28;20287;-78
2022/07/06 07:11:23;;;;;;;2.13;0.88;;;;;;;;;;5099395;28;20226;-79
2022/07/06 07:13:51;;;;;;;1.00;1.00;;;;;;;;;;5099393;28;20573;-81
2022/07/06 07:16:18;;;;;;;1.00;1.00;;;;;;;;;;5098351;28;20259;-83
2022/07/06 07:18:47;;;;;;;0.90;0.90;;;;;;;;;;5098837;28;20235;-82
2022/07/06 07:21:14;;;;;;;1.42;1.02;;;;;;;;;;5098559;28;20228;-81
2022/07/06 07:23:42;;;;;;;0.82;0.80;;;;;;;;;;5098875;28;20236;-82
2022/07/06 07:26:10;;;;;;;1.48;1.00;;;;;;;;;;5098109;28;20248;-80
2022/07/06 07:28:37;;;;;;;1.50;1.40;;;;;;;;;;5098047;28;20243;-79
2022/07/06 07:31:06;;;;;;;0.90;0.90;;;;;;;;;;5097990;28;20234;-82
2022/07/06 07:33:33;;;;;;;0.77;0.77;;;;;;;;;;5098259;28;20239;-80
2022/07/06 07:36:02;;;;;;;1.42;1.00;;;;;;;;;;5098329;28;20247;-81
2022/07/06 07:38:30;;;;;;;0.90;0.90;;;;;;;;;;5097963;28;20353;-82
2022/07/06 07:40:58;;;;;;;1.50;1.08;;;;;;;;;;5097807;28;20235;-79
2022/07/06 07:43:25;;;;;;;0.77;0.77;;;;;;;;;;5099564;28;20255;-81
2022/07/06 07:45:53;;;;;;;1.17;0.90;;;;;;;;;;5098170;28;20247;-78
2022/07/06 07:48:20;;;;;;;0.98;0.98;;;;;;;;;;5097682;28;20200;-80
2022/07/06 07:50:48;;;;;;;1.10;1.00;;;;;;;;;;5098860;28;20640;-80
2022/07/06 07:53:17;;;;;;;3.20;1.50;;;;;;;;;;5098248;28;20668;-81
2022/07/06 07:55:44;;;;;;;0.93;0.93;;;;;;;;;;5097917;28;20252;-79
2022/07/06 07:58:12;;;;;;;0.93;0.70;;;;;;;;;;5097233;28;20643;-80
2022/07/06 08:00:39;;;;;;;0.77;0.75;;;;;;;;;;5097632;28;20676;-79
2022/07/06 08:03:07;;;;;;;0.70;0.70;;;;;;;;;;5097744;28;20239;-80
2022/07/06 08:05:34;;;;;;;1.13;0.80;;;;;;;;;;5098127;28;20659;-79
2022/07/06 08:08:02;;;;;;;0.82;0.80;;;;;;;;;;5098969;28;20200;-81
2022/07/06 08:10:31;;;;;;;0.70;0.70;;;;;;;;;;5098230;28;20222;-80
2022/07/06 08:12:58;;;;;;;1.20;1.10;;;;;;;;;;5098676;28;20299;-81
2022/07/06 08:15:26;;;;;;;0.80;0.80;;;;;;;;;;5097095;28;20647;-81
2022/07/06 08:17:54;;;;;;;0.88;0.88;;;;;;;;;;5096059;28;20202;-81
2022/07/06 08:20:21;;;;;;;2.42;1.08;;;;;;;;;;5096420;28;20200;-82
2022/07/06 08:22:49;;;;;;;0.60;0.60;;;;;;;;;;5095361;28;20228;-83
2022/07/06 08:25:16;;;;;;;0.95;0.95;;;;;;;;;;5095409;28;20247;-81
2022/07/06 08:27:46;;;;;;;1.00;0.90;;;;;;;;;;5095730;28;20207;-82
2022/07/06 08:30:14;;;;;;;0.90;0.90;;;;;;;;;;5096006;28;20200;-82
2022/07/06 08:32:42;;;;;;;1.10;0.90;;;;;;;;;;5095469;28;20676;-82
2022/07/06 08:35:11;;;;;;;0.80;0.80;;;;;;;;;;5095621;28;20271;-81
2022/07/06 08:37:38;;;;;;;0.80;0.80;;;;;;;;;;5095684;28;20208;-80
2022/07/06 08:40:07;;;;;;;0.95;0.70;;;;;;;;;;5095445;28;20291;-81
2022/07/06 08:42:36;;;;;;;0.77;0.75;;;;;;;;;;5095009;28;20291;-81
2022/07/06 08:45:08;;;;;;;1.08;0.70;;;;;;;;;;5094860;28;20282;-81
2022/07/06 08:47:38;;;;;;;1.30;0.60;;;;;;;;;;5095312;28;20231;-81
2022/07/06 08:50:08;;;;;;;1.35;0.80;;;;;;;;;;5095220;28;20200;-83
2022/07/06 08:52:35;;;;;;;0.85;0.70;;;;;;;;;;5095106;28;20585;-81
2022/07/06 08:55:05;;;;;;;1.15;1.08;;;;;;;;;;5095440;28;20274;-80
2022/07/06 08:57:32;;;;;;;1.65;1.00;;;;;;;;;;5095136;28;20235;-81
2022/07/06 09:00:01;;;;;;;0.80;0.70;;;;;;;;;;5095701;28;20204;-82
2022/07/06 09:02:30;;;;;;;0.70;0.65;;;;;;;;;;5095116;28;20227;-81
2022/07/06 09:04:58;;;;;;;0.63;0.63;;;;;;;;;;5095407;28;20251;-81
2022/07/06 09:07:27;;;;;;;0.80;0.77;;;;;;;;;;5095533;28;20201;-81
2022/07/06 09:09:56;;;;;;;0.60;0.60;;;;;;;;;;5095888;28;20341;-82
2022/07/06 09:12:27;;;;;;;0.98;0.85;;;;;;;;;;5090610;28;20647;-82
2022/07/06 09:14:56;;;;;;;0.98;0.90;;;;;;;;;;5074207;28;20225;-82
2022/07/06 09:17:29;;;;;;;0.70;0.70;;;;;;;;;;5074779;28;20217;-82
2022/07/06 09:19:57;;;;;;;1.05;0.85;;;;;;;;;;5075483;28;20242;-82
2022/07/06 09:22:31;;;;;;;0.55;0.50;;;;;;;;;;5074996;28;20205;-82
2022/07/06 09:25:05;;;;;;;0.50;0.50;;;;;;;;;;5074647;28;20316;-82
2022/07/06 09:27:33;;;;;;;0.57;0.57;;;;;;;;;;5075040;28;20279;-82
2022/07/06 09:30:02;;;;;;;1.45;0.60;;;;;;;;;;5074677;28;20258;-82
2022/07/06 09:32:31;;;;;;;0.65;0.65;;;;;;;;;;5074653;28;20204;-82
2022/07/06 09:34:58;;;;;;;0.70;0.70;;;;;;;;;;5074782;28;20259;-81
2022/07/06 09:37:26;;;;;;;0.60;0.60;;;;;;;;;;5074891;28;20573;-82
2022/07/06 09:39:53;;;;;;;0.55;0.50;;;;;;;;;;5073665;28;20228;-83
2022/07/06 09:42:26;;;;;;;0.82;0.50;;;;;;;;;;5074987;28;20197;-82
2022/07/06 09:44:55;;;;;;;0.52;0.52;;;;;;;;;;5075445;28;20609;-83
2022/07/06 09:47:22;;;;;;;0.55;0.55;;;;;;;;;;5075786;28;20261;-81
2022/07/06 09:49:51;;;;;;;0.77;0.77;;;;;;;;;;5075888;28;20224;-82
2022/07/06 09:52:19;;;;;;;1.10;0.80;;;;;;;;;;5074744;28;20235;-83
2022/07/06 09:54:50;;;;;;;0.88;0.80;;;;;;;;;;5076449;28;20204;-83
2022/07/06 09:57:18;;;;;;;0.77;0.60;;;;;;;;;;5076061;28;20248;-82
2022/07/06 09:59:52;;;;;;;0.60;0.60;;;;;;;;;;5075501;28;20235;-83
2022/07/06 10:02:22;;;;;;;1.70;0.60;;;;;;;;;;5075323;28;20191;-83
2022/07/06 10:04:52;;;;;;;0.80;0.80;;;;;;;;;;5076637;28;20185;-83
2022/07/06 10:07:20;;;;;;;0.80;0.80;;;;;;;;;;5076020;28;20268;-83
2022/07/06 10:09:48;;;;;;;0.60;0.60;;;;;;;;;;5076372;28;20235;-83
2022/07/06 10:12:17;;;;;;;0.52;0.52;;;;;;;;;;5074026;28;20204;-82
2022/07/06 10:14:44;;;;;;;1.15;0.70;;;;;;;;;;5076176;28;20601;-82
2022/07/06 10:17:12;;;;;;;2.40;0.88;;;;;;;;;;5074706;28;20747;-83
2022/07/06 10:19:40;;;;;;;1.20;1.17;;;;;;;;;;5074376;28;20237;-82
2022/07/06 10:22:09;;;;;;;1.98;0.80;;;;;;;;;;5073763;28;20240;-83
2022/07/06 10:24:43;;;;;;;1.65;0.60;;;;;;;;;;5076139;28;20232;-83
2022/07/06 10:27:10;;;;;;;0.50;0.50;;;;;;;;;;5078613;28;20185;-82
2022/07/06 10:29:38;;;;;;;0.57;0.57;;;;;;;;;;5078596;28;20263;-82
2022/07/06 10:32:07;;;;;;;1.08;0.75;;;;;;;;;;5077461;28;20236;-83
2022/07/06 10:34:36;;;;;;;0.68;0.68;;;;;;;;;;5078464;28;20711;-82
2022/07/06 10:37:04;;;;;;;1.52;0.52;;;;;;;;;;5078157;28;20225;-83
2022/07/06 10:42:43;;;;;;;0.60;0.60;;;;;;;;;;5078086;28;20290;-83
2022/07/06 10:45:13;;;;;;;1.60;0.60;;;;;;;;;;5078520;28;20264;-83
2022/07/06 10:47:42;;;;;;;0.43;0.43;;;;;;;;;;5079042;28;20636;-83
2022/07/06 10:50:10;;;;;;;0.63;0.43;;;;;;;;;;5078077;28;20232;-84
2022/07/06 10:52:52;;;;;;;1.73;0.70;;;;;;;;;;5078279;28;20200;-83
2022/07/06 10:55:38;;;;;;;0.68;0.68;;;;;;;;;;5078346;28;20270;-83
2022/07/06 10:58:07;;;;;;;0.82;0.82;;;;;;;;;;5078597;28;20267;-83
2022/07/06 11:01:01;;;;;;;0.90;0.60;;;;;;;;;;5077557;28;20205;-83
2022/07/06 11:03:40;;;;;;;0.93;0.88;;;;;;;;;;5041458;28;20205;-83
2022/07/06 11:06:12;;;;;;;0.50;0.50;;;;;;;;;;5078291;28;20709;-83
2022/07/06 11:09:04;;;;;;;0.60;0.60;;;;;;;;;;5078002;28;20205;-84
2022/07/06 11:11:47;;;;;;;0.73;0.60;;;;;;;;;;5077190;28;20233;-83
2022/07/06 11:14:16;;;;;;;0.57;0.57;;;;;;;;;;5077846;28;20575;-82
2022/07/06 11:17:03;;;;;;;0.68;0.68;;;;;;;;;;5077771;28;20260;-82
2022/07/06 11:19:31;;;;;;;0.50;0.50;;;;;;;;;;5077644;28;20201;-83
2022/07/06 11:22:06;;;;;;;0.77;0.60;;;;;;;;;;5077487;28;20579;-84
2022/07/06 11:24:35;;;;;;;0.65;0.65;;;;;;;;;;5078409;28;20266;-83
2022/07/06 11:27:06;;;;;;;1.45;0.60;;;;;;;;;;5077862;28;20567;-83
2022/07/06 11:29:34;;;;;;;2.00;0.90;;;;;;;;;;5077817;28;20292;-83
2022/07/06 11:32:03;;;;;;;0.60;0.60;;;;;;;;;;5077189;28;20201;-82
2022/07/06 11:34:33;;;;;;;0.57;0.57;;;;;;;;;;5077573;28;20231;-84
2022/07/06 11:37:02;;;;;;;0.60;0.60;;;;;;;;;;5076380;28;20312;-83
2022/07/06 11:39:30;;;;;;;0.60;0.60;;;;;;;;;;5077107;28;20679;-84
2022/07/06 11:41:59;;;;;;;0.60;0.60;;;;;;;;;;5076876;28;20677;-83
2022/07/06 11:44:29;;;;;;;0.90;0.85;;;;;;;;;;5077545;28;20205;-84
2022/07/06 11:46:59;;;;;;;0.50;0.50;;;;;;;;;;5078140;28;20709;-84
2022/07/06 11:49:26;;;;;;;1.23;1.17;;;;;;;;;;5078150;28;20197;-85
2022/07/06 11:51:54;;;;;;;0.45;0.45;;;;;;;;;;5077962;28;20235;-84
2022/07/06 11:54:23;;;;;;;0.70;0.68;;;;;;;;;;5078990;28;20197;-84
2022/07/06 11:56:53;;;;;;;0.60;0.60;;;;;;;;;;5078607;28;20307;-84
2022/07/06 11:59:23;;;;;;;1.48;0.50;;;;;;;;;;5079693;28;20235;-83
2022/07/06 12:02:00;;;;;;;0.43;0.43;;;;;;;;;;5077205;28;20212;-83
2022/07/06 12:04:28;;;;;;;0.52;0.52;;;;;;;;;;5079203;28;20610;-83
2022/07/06 12:06:56;;;;;;;0.65;0.60;;;;;;;;;;5078066;28;20229;-83
2022/07/06 12:09:23;;;;;;;1.08;0.80;;;;;;;;;;5078930;28;20197;-83
2022/07/06 12:11:51;;;;;;;0.73;0.73;;;;;;;;;;5078953;28;20661;-84
2022/07/06 12:14:21;;;;;;;0.73;0.47;;;;;;;;;;5098163;28;20200;-82
2022/07/06 12:16:51;;;;;;;0.75;0.75;;;;;;;;;;5099553;28;20232;-82
2022/07/06 12:19:19;;;;;;;1.30;0.68;;;;;;;;;;5099591;28;20236;-82
2022/07/06 12:21:48;;;;;;;0.65;0.65;;;;;;;;;;5097827;28;20680;-82
2022/07/06 12:24:25;;;;;;;0.50;0.50;;;;;;;;;;5098697;28;20196;-84
2022/07/06 12:26:54;;;;;;;2.15;0.80;;;;;;;;;;5099258;28;20252;-83
2022/07/06 12:29:23;;;;;;;0.60;0.60;;;;;;;;;;5098182;28;20249;-82
2022/07/06 12:31:54;;;;;;;1.35;0.93;;;;;;;;;;5098003;28;20656;-84
2022/07/06 12:34:24;;;;;;;2.10;0.98;;;;;;;;;;5098310;28;20612;-83
2022/07/06 12:36:53;;;;;;;0.80;0.80;;;;;;;;;;5098234;28;20273;-84
2022/07/06 12:39:24;;;;;;;0.57;0.57;;;;;;;;;;5098084;28;20220;-83
2022/07/06 12:41:54;;;;;;;0.80;0.80;;;;;;;;;;5097964;28;20688;-85
2022/07/06 12:44:24;;;;;;;0.82;0.82;;;;;;;;;;5097832;28;20208;-83
2022/07/06 12:47:04;;;;;;;0.40;0.40;;;;;;;;;;5097790;28;20228;-83
2022/07/06 12:49:32;;;;;;;0.90;0.80;;;;;;;;;;5097252;28;20239;-83
2022/07/06 12:52:02;;;;;;;0.95;0.95;;;;;;;;;;5097692;28;20196;-83
2022/07/06 12:54:33;;;;;;;0.50;0.50;;;;;;;;;;5097846;28;20196;-84
2022/07/06 12:57:15;;;;;;;0.68;0.68;;;;;;;;;;5097586;28;20197;-84
2022/07/06 12:59:45;;;;;;;0.70;0.70;;;;;;;;;;5098144;28;20224;-83
2022/07/06 13:02:23;;;;;;;0.60;0.60;;;;;;;;;;5097471;28;20204;-84
2022/07/06 13:04:58;;;;;;;0.60;0.55;;;;;;;;;;5097978;28;20203;-83
2022/07/06 13:07:26;;;;;;;1.48;0.73;;;;;;;;;;5097188;28;20675;-83
2022/07/06 13:09:54;;;;;;;1.30;0.70;;;;;;;;;;5097708;28;20192;-82
2022/07/06 13:12:22;;;;;;;0.65;0.65;;;;;;;;;;5097318;28;20251;-83
2022/07/06 13:14:50;;;;;;;0.52;0.52;;;;;;;;;;5097966;28;20200;-83
2022/07/06 13:17:19;;;;;;;0.70;0.70;;;;;;;;;;5096787;28;20564;-85
2022/07/06 13:19:47;;;;;;;1.23;0.82;;;;;;;;;;5097450;28;20271;-85
2022/07/06 13:22:15;;;;;;;1.00;1.00;;;;;;;;;;5097251;28;20547;-84
2022/07/06 13:24:42;;;;;;;1.52;0.98;;;;;;;;;;5097619;28;20200;-82
2022/07/06 13:27:11;;;;;;;0.50;0.50;;;;;;;;;;5097284;28;20219;-83
2022/07/06 13:29:38;;;;;;;0.70;0.70;;;;;;;;;;5097033;28;20222;-83
2022/07/06 13:32:07;;;;;;;0.77;0.68;;;;;;;;;;5096033;28;20283;-85
2022/07/06 13:34:36;;;;;;;0.50;0.50;;;;;;;;;;5097161;28;20238;-85
2022/07/06 13:37:05;;;;;;;0.50;0.50;;;;;;;;;;5096981;28;20192;-84
2022/07/06 13:39:32;;;;;;;0.55;0.55;;;;;;;;;;5097267;28;20224;-84
2022/07/06 13:42:00;;;;;;;1.27;0.90;;;;;;;;;;5096730;28;20200;-85
2022/07/06 13:44:28;;;;;;;0.80;0.60;;;;;;;;;;5076549;28;20212;-85
2022/07/06 13:46:56;;;;;;;0.70;0.70;;;;;;;;;;5076772;28;20225;-85
2022/07/06 13:49:23;;;;;;;0.70;0.70;;;;;;;;;;5077689;28;20658;-83
2022/07/06 13:51:54;;;;;;;0.63;0.63;;;;;;;;;;5076017;28;20235;-83
2022/07/06 13:54:21;;;;;;;0.57;0.57;;;;;;;;;;5077820;28;20660;-84
2022/07/06 13:56:49;;;;;;;0.47;0.47;;;;;;;;;;5077496;28;20223;-82
2022/07/06 13:59:17;;;;;;;1.60;0.68;;;;;;;;;;5077206;28;20256;-83
2022/07/06 14:01:44;;;;;;;0.90;0.80;;;;;;;;;;5076306;28;20292;-82
2022/07/06 14:04:11;;;;;;;1.58;0.60;;;;;;;;;;5075774;28;20236;-83
2022/07/06 14:06:39;;;;;;;0.75;0.63;;;;;;;;;;5076081;28;20584;-83
2022/07/06 14:09:08;;;;;;;1.13;0.73;;;;;;;;;;5076182;28;20197;-83
2022/07/06 14:11:36;;;;;;;0.90;0.90;;;;;;;;;;5076885;28;20760;-82
2022/07/06 14:14:06;;;;;;;0.98;0.90;;;;;;;;;;5093296;28;20230;-84
2022/07/06 14:16:35;;;;;;;0.60;0.60;;;;;;;;;;5097112;28;20607;-85
2022/07/06 14:19:03;;;;;;;0.70;0.70;;;;;;;;;;5095960;28;20255;-84
2022/07/06 14:21:30;;;;;;;0.60;0.60;;;;;;;;;;5076737;28;20292;-85
2022/07/06 14:23:58;;;;;;;0.70;0.70;;;;;;;;;;5076881;28;20197;-84
2022/07/06 14:26:27;;;;;;;1.10;0.70;;;;;;;;;;5076792;28;20252;-84
2022/07/06 14:28:55;;;;;;;0.77;0.77;;;;;;;;;;5076828;28;20240;-85
2022/07/06 14:31:22;;;;;;;0.52;0.52;;;;;;;;;;5076883;28;20201;-84
2022/07/06 14:33:50;;;;;;;1.35;0.70;;;;;;;;;;5077134;28;20224;-83
2022/07/06 14:36:18;;;;;;;0.95;0.95;;;;;;;;;;5077687;28;20220;-84
2022/07/06 14:38:45;;;;;;;1.33;1.15;;;;;;;;;;5076969;28;20643;-83
2022/07/06 14:41:13;;;;;;;1.25;0.70;;;;;;;;;;5076884;28;20239;-85
2022/07/06 14:43:42;;;;;;;0.60;0.60;;;;;;;;;;5076543;28;20196;-85
2022/07/06 14:46:09;;;;;;;1.10;0.55;;;;;;;;;;5076125;28;20598;-84
2022/07/06 14:48:37;;;;;;;1.15;0.70;;;;;;;;;;5076358;28;20221;-85
2022/07/06 14:51:04;;;;;;;2.28;0.93;;;;;;;;;;5077041;28;20291;-84
2022/07/06 14:53:32;;;;;;;1.85;0.70;;;;;;;;;;5076467;28;20228;-84
2022/07/06 14:55:59;;;;;;;0.98;0.60;;;;;;;;;;5076063;28;20555;-84
2022/07/06 14:58:27;;;;;;;0.60;0.60;;;;;;;;;;5076046;28;20236;-84
2022/07/06 15:00:56;;;;;;;2.58;0.77;;;;;;;;;;5076215;28;20650;-82